Time;durP1;ratioP1;P1;durP2;ratioP2;P2;SDS_P1;SDS_P2;PMS_P1;PMS_P2;Temp;Humidity;BMP_temperature;BMP_pressure;BME280_temperature;BME280_humidity;BME280_pressure;Samples;Min_cycle;Max_cycle;Signal;HPM_P1;HPM_P2
2022/09/10 00:00:33;;;;;;;1.00;1.00;;;23.70;62.40;;;;;;5011024;28;43442;-73
2022/09/10 00:03:01;;;;;;;1.10;1.10;;;23.70;62.50;;;;;;4998867;28;45799;-71
2022/09/10 00:05:29;;;;;;;1.27;1.17;;;23.70;62.20;;;;;;4996260;28;44271;-72
2022/09/10 00:07:58;;;;;;;0.90;0.90;;;23.80;61.90;;;;;;5010293;28;43995;-72
2022/09/10 00:10:27;;;;;;;1.20;1.10;;;23.90;61.80;;;;;;5022844;28;43587;-72
2022/09/10 00:12:55;;;;;;;0.90;0.90;;;23.80;61.90;;;;;;4987452;28;45628;-73
2022/09/10 00:15:23;;;;;;;1.10;1.10;;;23.70;62.00;;;;;;5015924;28;44722;-74
2022/09/10 00:17:51;;;;;;;1.50;1.50;;;23.80;62.10;;;;;;4999899;28;43905;-72
2022/09/10 00:20:19;;;;;;;1.10;1.10;;;23.70;62.00;;;;;;5007796;28;43583;-73
2022/09/10 00:22:48;;;;;;;0.90;0.90;;;23.70;62.10;;;;;;5017091;28;43835;-72
2022/09/10 00:25:16;;;;;;;1.00;1.00;;;23.70;62.20;;;;;;5012156;28;43432;-72
2022/09/10 00:27:45;;;;;;;1.00;1.00;;;23.60;62.30;;;;;;5005189;28;43464;-72
2022/09/10 00:30:13;;;;;;;1.00;1.00;;;23.70;62.30;;;;;;5017241;28;43362;-72
2022/09/10 00:32:41;;;;;;;1.07;1.07;;;23.60;62.30;;;;;;5016416;28;43589;-71
2022/09/10 00:35:09;;;;;;;1.00;1.00;;;23.60;62.40;;;;;;5016337;28;43433;-72
2022/09/10 00:37:37;;;;;;;1.00;1.00;;;23.60;62.60;;;;;;5006786;28;43543;-72
2022/09/10 00:40:06;;;;;;;1.10;1.10;;;23.60;62.40;;;;;;5014844;28;43335;-73
2022/09/10 00:42:34;;;;;;;0.90;0.90;;;23.70;62.10;;;;;;5011784;28;43851;-73
2022/09/10 00:45:04;;;;;;;1.00;1.00;;;23.90;61.80;;;;;;5001760;28;43373;-74
2022/09/10 00:47:33;;;;;;;0.87;0.87;;;23.90;61.50;;;;;;5009981;28;43515;-75
2022/09/10 00:50:05;;;;;;;1.00;1.00;;;23.90;61.40;;;;;;5013898;28;43442;-71
2022/09/10 00:52:33;;;;;;;1.00;1.00;;;23.90;61.60;;;;;;5009981;28;43889;-72
2022/09/10 00:55:07;;;;;;;1.00;1.00;;;23.80;61.80;;;;;;5007722;28;43466;-75
2022/09/10 00:57:35;;;;;;;0.90;0.90;;;23.70;61.90;;;;;;4990928;28;43786;-72
2022/09/10 01:00:11;;;;;;;1.00;1.00;;;23.70;62.00;;;;;;5007651;28;43443;-76
2022/09/10 01:02:41;;;;;;;1.10;1.10;;;23.70;62.10;;;;;;4987005;28;43966;-75
2022/09/10 01:05:09;;;;;;;0.90;0.90;;;23.60;62.20;;;;;;4969030;28;44815;-77
2022/09/10 01:07:37;;;;;;;1.07;1.07;;;23.60;62.40;;;;;;4995874;28;44025;-75
2022/09/10 01:10:08;;;;;;;0.90;0.90;;;23.60;62.40;;;;;;4978826;28;43580;-74
2022/09/10 01:12:47;;;;;;;0.80;0.80;;;23.60;62.40;;;;;;4971568;28;45299;-74
2022/09/10 01:15:22;;;;;;;1.10;1.10;;;23.60;62.40;;;;;;5001500;28;43496;-75
2022/09/10 01:17:58;;;;;;;1.13;1.13;;;23.60;62.50;;;;;;4996584;28;43424;-76
2022/09/10 01:21:09;;;;;;;0.83;0.83;;;23.60;62.60;;;;;;4976966;28;43553;-75
2022/09/10 01:24:00;;;;;;;0.70;0.70;;;23.70;62.30;;;;;;4973958;28;45828;-74
2022/09/10 01:26:35;;;;;;;1.00;1.00;;;23.80;61.90;;;;;;4995224;28;43912;-76
2022/09/10 01:29:07;;;;;;;0.90;0.90;;;23.90;61.60;;;;;;4974346;28;44012;-76
2022/09/10 01:31:41;;;;;;;1.03;1.03;;;23.90;61.50;;;;;;4974395;28;43425;-75
2022/09/10 01:34:16;;;;;;;0.90;0.90;;;23.90;61.60;;;;;;4976591;28;45673;-73
2022/09/10 01:36:47;;;;;;;0.90;0.90;;;23.80;61.80;;;;;;4976094;28;43920;-75
2022/09/10 01:39:16;;;;;;;1.07;1.03;;;23.70;62.10;;;;;;4978072;28;43933;-75
2022/09/10 01:41:45;;;;;;;1.33;0.90;;;23.70;62.10;;;;;;4979056;28;43534;-74
2022/09/10 01:44:41;;;;;;;1.00;1.00;;;23.60;62.10;;;;;;4985259;28;46091;-74
2022/09/10 01:47:14;;;;;;;1.00;1.00;;;23.60;62.20;;;;;;4982884;28;45114;-73
2022/09/10 01:49:47;;;;;;;1.00;1.00;;;23.50;62.30;;;;;;4975697;28;43980;-73
2022/09/10 01:52:21;;;;;;;0.90;0.90;;;23.60;62.40;;;;;;4983170;28;43490;-74
2022/09/10 01:54:55;;;;;;;1.00;1.00;;;23.70;62.20;;;;;;4975963;28;44715;-76
2022/09/10 01:57:28;;;;;;;0.90;0.90;;;23.80;61.80;;;;;;4971801;28;44494;-74
2022/09/10 02:00:03;;;;;;;1.00;1.00;;;23.90;61.50;;;;;;4975934;28;43479;-77
2022/09/10 02:02:41;;;;;;;0.90;0.90;;;23.90;61.40;;;;;;5000096;28;43530;-75
2022/09/10 02:05:09;;;;;;;0.73;0.73;;;23.80;61.50;;;;;;4974804;28;45833;-76
2022/09/10 02:07:39;;;;;;;1.00;1.00;;;23.70;61.80;;;;;;4980795;28;43508;-76
2022/09/10 02:10:10;;;;;;;0.90;0.90;;;23.70;62.00;;;;;;4978823;28;43517;-76
2022/09/10 02:12:44;;;;;;;1.03;1.03;;;23.70;62.00;;;;;;4985154;28;43582;-73
2022/09/10 02:15:33;;;;;;;0.60;0.60;;;23.60;62.00;;;;;;4982588;28;44827;-75
2022/09/10 02:18:20;;;;;;;0.90;0.90;;;23.60;62.20;;;;;;4971177;28;44392;-73
2022/09/10 02:20:50;;;;;;;0.80;0.80;;;23.50;62.30;;;;;;4976581;28;43514;-77
2022/09/10 02:23:20;;;;;;;0.90;0.90;;;23.60;62.40;;;;;;4995101;28;43412;-77
2022/09/10 02:25:49;;;;;;;0.80;0.80;;;23.50;62.20;;;;;;4983281;28;46075;-75
2022/09/10 02:28:17;;;;;;;0.90;0.90;;;23.50;62.30;;;;;;4998003;28;43459;-74
2022/09/10 02:30:47;;;;;;;0.80;0.80;;;23.50;62.40;;;;;;4973668;28;43458;-76
2022/09/10 02:33:15;;;;;;;0.70;0.70;;;23.50;62.60;;;;;;4977104;28;44016;-76
2022/09/10 02:35:43;;;;;;;0.70;0.70;;;23.50;62.40;;;;;;4995972;28;43917;-74
2022/09/10 02:38:11;;;;;;;0.80;0.80;;;23.70;62.20;;;;;;4992513;28;44869;-76
2022/09/10 02:40:39;;;;;;;0.97;0.97;;;23.80;61.80;;;;;;4975478;28;43495;-76
2022/09/10 02:43:07;;;;;;;0.93;0.90;;;23.90;61.50;;;;;;4994705;28;43417;-76
2022/09/10 02:45:37;;;;;;;0.90;0.90;;;23.90;61.40;;;;;;4993230;28;43842;-75
2022/09/10 02:48:06;;;;;;;1.10;1.10;;;23.80;61.60;;;;;;4971908;28;44614;-74
2022/09/10 02:50:35;;;;;;;0.87;0.87;;;23.70;61.70;;;;;;4981738;28;43456;-75
2022/09/10 02:53:04;;;;;;;0.90;0.90;;;23.60;62.00;;;;;;4978691;28;43528;-76
2022/09/10 02:55:32;;;;;;;0.80;0.80;;;23.60;62.00;;;;;;4975518;28;45804;-74
2022/09/10 02:58:00;;;;;;;0.83;0.83;;;23.60;62.10;;;;;;4972250;28;43315;-75
2022/09/10 03:00:31;;;;;;;0.80;0.80;;;23.60;62.30;;;;;;4978879;28;43407;-74
2022/09/10 03:03:00;;;;;;;0.63;0.63;;;23.50;62.30;;;;;;4979705;28;45051;-76
2022/09/10 03:05:31;;;;;;;0.90;0.90;;;23.50;62.40;;;;;;4976396;28;45460;-75
2022/09/10 03:08:00;;;;;;;0.70;0.70;;;23.60;62.20;;;;;;5000336;28;43389;-74
2022/09/10 03:10:30;;;;;;;0.80;0.80;;;23.70;61.90;;;;;;4976681;28;44079;-75
2022/09/10 03:12:58;;;;;;;0.80;0.80;;;23.80;61.60;;;;;;4989866;28;43432;-74
2022/09/10 03:15:26;;;;;;;0.90;0.90;;;23.90;61.40;;;;;;4984186;28;45730;-74
2022/09/10 03:17:54;;;;;;;0.90;0.90;;;23.80;61.50;;;;;;4977902;28;43457;-75
2022/09/10 03:20:22;;;;;;;0.83;0.83;;;23.70;61.70;;;;;;4978726;28;43447;-73
2022/09/10 03:22:52;;;;;;;0.80;0.80;;;23.60;61.90;;;;;;4974590;28;43941;-78
2022/09/10 03:25:21;;;;;;;0.80;0.80;;;23.60;62.00;;;;;;4979954;28;46111;-74
2022/09/10 03:27:49;;;;;;;0.70;0.70;;;23.60;62.00;;;;;;5000494;28;44717;-74
2022/09/10 03:30:17;;;;;;;0.90;0.90;;;23.60;62.20;;;;;;4975634;28;43462;-74
2022/09/10 03:32:45;;;;;;;0.90;0.90;;;23.50;62.20;;;;;;4988317;28;43446;-75
2022/09/10 03:35:14;;;;;;;0.77;0.77;;;23.50;62.50;;;;;;4977844;28;43912;-76
2022/09/10 03:37:43;;;;;;;0.70;0.70;;;23.50;62.30;;;;;;4976781;28;45661;-74
2022/09/10 03:40:12;;;;;;;0.80;0.80;;;23.50;62.40;;;;;;4970003;28;43467;-76
2022/09/10 03:42:40;;;;;;;0.90;0.90;;;23.50;62.50;;;;;;4976159;28;43498;-73
2022/09/10 03:45:09;;;;;;;0.73;0.73;;;23.50;62.60;;;;;;4993671;28;43906;-75
2022/09/10 03:47:37;;;;;;;0.80;0.80;;;23.50;62.70;;;;;;4975009;28;44414;-74
2022/09/10 03:50:06;;;;;;;0.93;0.93;;;23.50;62.40;;;;;;4975550;28;43395;-76
2022/09/10 03:52:35;;;;;;;0.90;0.90;;;23.60;62.10;;;;;;4976864;28;43955;-75
2022/09/10 03:55:04;;;;;;;0.93;0.90;;;23.80;61.80;;;;;;4974657;28;46257;-73
2022/09/10 03:57:34;;;;;;;0.70;0.70;;;23.80;61.60;;;;;;4973324;28;44620;-74
2022/09/10 04:00:02;;;;;;;0.90;0.90;;;23.80;61.50;;;;;;4979359;28;43494;-74
2022/09/10 04:02:43;;;;;;;0.70;0.70;;;23.70;61.60;;;;;;4990434;28;43829;-75
2022/09/10 04:05:13;;;;;;;0.63;0.63;;;23.70;61.90;;;;;;4978935;28;43930;-73
2022/09/10 04:07:41;;;;;;;0.90;0.90;;;23.60;62.00;;;;;;4991165;28;43551;-74
2022/09/10 04:10:09;;;;;;;0.80;0.80;;;23.60;62.10;;;;;;4978206;28;43485;-76
2022/09/10 04:12:40;;;;;;;0.80;0.80;;;23.60;62.20;;;;;;4997321;28;43488;-76
2022/09/10 04:15:09;;;;;;;0.70;0.70;;;23.50;62.20;;;;;;4976922;28;45987;-74
2022/09/10 04:17:37;;;;;;;0.77;0.77;;;23.50;62.40;;;;;;4998533;28;43493;-76
2022/09/10 04:20:05;;;;;;;0.53;0.53;;;23.50;62.30;;;;;;4980424;28;43412;-74
2022/09/10 04:22:34;;;;;;;0.70;0.70;;;23.50;62.40;;;;;;4986463;28;43600;-74
2022/09/10 04:25:02;;;;;;;0.90;0.90;;;23.50;62.50;;;;;;4990739;28;43770;-74
2022/09/10 04:27:30;;;;;;;0.90;0.90;;;23.40;62.50;;;;;;4969706;28;43433;-74
2022/09/10 04:29:59;;;;;;;0.73;0.73;;;23.40;62.60;;;;;;4972521;28;43381;-73
2022/09/10 04:32:28;;;;;;;0.83;0.83;;;23.50;62.30;;;;;;4998024;28;43950;-74
2022/09/10 04:34:55;;;;;;;0.77;0.77;;;23.60;62.00;;;;;;4976521;28;45295;-76
2022/09/10 04:37:24;;;;;;;0.90;0.90;;;23.70;61.60;;;;;;4972631;28;43456;-74
2022/09/10 04:39:54;;;;;;;0.70;0.70;;;23.80;61.60;;;;;;4970174;28;43390;-75
2022/09/10 04:42:22;;;;;;;0.80;0.80;;;23.70;61.60;;;;;;4993052;28;43690;-74
2022/09/10 04:44:52;;;;;;;0.73;0.73;;;23.70;61.80;;;;;;4980375;28;43901;-75
2022/09/10 04:47:22;;;;;;;0.93;0.93;;;23.60;62.00;;;;;;4976831;28;43446;-74
2022/09/10 04:49:49;;;;;;;0.70;0.70;;;23.60;62.10;;;;;;4986999;28;43424;-76
2022/09/10 04:52:21;;;;;;;0.80;0.80;;;23.50;62.10;;;;;;4971979;28;43558;-75
2022/09/10 04:54:50;;;;;;;0.90;0.90;;;23.50;62.20;;;;;;4978848;28;43979;-74
2022/09/10 04:57:18;;;;;;;0.60;0.60;;;23.50;62.40;;;;;;4978104;28;44537;-73
2022/09/10 04:59:47;;;;;;;0.77;0.77;;;23.50;62.50;;;;;;4976763;28;43484;-75
2022/09/10 05:02:15;;;;;;;0.67;0.67;;;23.50;62.40;;;;;;4971141;28;43444;-76
2022/09/10 05:04:44;;;;;;;0.70;0.70;;;23.60;62.10;;;;;;4977448;28;44127;-74
2022/09/10 05:07:12;;;;;;;0.80;0.80;;;23.70;61.90;;;;;;4990180;28;44047;-75
2022/09/10 05:09:40;;;;;;;0.80;0.80;;;23.70;61.60;;;;;;4972214;28;43470;-74
2022/09/10 05:12:09;;;;;;;0.70;0.70;;;23.70;61.60;;;;;;4973424;28;43403;-74
2022/09/10 05:14:37;;;;;;;0.90;0.90;;;23.70;61.80;;;;;;4990278;28;43851;-73
2022/09/10 05:17:05;;;;;;;0.80;0.80;;;23.60;61.90;;;;;;4974472;28;44539;-75
2022/09/10 05:19:34;;;;;;;0.90;0.90;;;23.50;62.10;;;;;;4989039;28;43510;-74
2022/09/10 05:22:06;;;;;;;0.70;0.70;;;23.50;62.10;;;;;;4978548;28;43934;-76
2022/09/10 05:24:35;;;;;;;0.70;0.70;;;23.50;62.20;;;;;;4976390;28;45544;-74
2022/09/10 05:27:05;;;;;;;0.70;0.70;;;23.50;62.30;;;;;;4969681;28;44617;-73
2022/09/10 05:29:34;;;;;;;0.70;0.70;;;23.40;62.40;;;;;;4990056;28;43446;-75
2022/09/10 05:32:02;;;;;;;0.60;0.60;;;23.50;62.50;;;;;;4978425;28;43576;-73
2022/09/10 05:34:30;;;;;;;0.70;0.70;;;23.50;62.20;;;;;;4992815;28;43916;-75
2022/09/10 05:36:58;;;;;;;0.80;0.80;;;23.60;61.90;;;;;;4990071;28;44794;-75
2022/09/10 05:39:27;;;;;;;0.60;0.60;;;23.70;61.60;;;;;;4991023;28;43887;-76
2022/09/10 05:41:56;;;;;;;0.63;0.63;;;23.70;61.60;;;;;;5008123;28;43440;-75
2022/09/10 05:44:24;;;;;;;0.70;0.70;;;23.60;61.70;;;;;;4976923;28;45726;-75
2022/09/10 05:46:52;;;;;;;0.70;0.70;;;23.60;61.90;;;;;;4977971;28;44464;-76
2022/09/10 05:49:21;;;;;;;0.60;0.60;;;23.50;62.10;;;;;;4975453;28;43432;-74
2022/09/10 05:51:49;;;;;;;0.57;0.57;;;23.50;62.10;;;;;;4969200;28;43475;-75
2022/09/10 05:54:17;;;;;;;0.70;0.70;;;23.50;62.20;;;;;;4974005;28;45619;-75
2022/09/10 05:56:47;;;;;;;0.80;0.80;;;23.50;62.30;;;;;;4970906;28;43884;-74
2022/09/10 05:59:15;;;;;;;0.70;0.70;;;23.40;62.40;;;;;;4979525;28;43428;-75
2022/09/10 06:01:50;;;;;;;0.60;0.60;;;23.40;62.50;;;;;;4976994;28;44065;-74
2022/09/10 06:04:20;;;;;;;0.80;0.80;;;23.40;62.50;;;;;;4979814;28;43851;-74
2022/09/10 06:06:48;;;;;;;0.90;0.90;;;23.40;63.50;;;;;;4972314;28;45063;-75
2022/09/10 06:09:18;;;;;;;1.03;0.93;;;23.40;62.60;;;;;;4986205;28;43692;-72
2022/09/10 06:12:06;;;;;;;0.77;0.77;;;23.40;62.70;;;;;;4976198;28;43546;-75
2022/09/10 06:14:35;;;;;;;0.70;0.70;;;23.40;62.50;;;;;;4979874;28;45645;-76
2022/09/10 06:17:03;;;;;;;0.80;0.80;;;23.50;62.10;;;;;;4978903;28;44790;-74
2022/09/10 06:19:32;;;;;;;0.80;0.80;;;23.70;61.80;;;;;;4978181;28;43342;-75
2022/09/10 06:22:00;;;;;;;0.80;0.80;;;23.70;61.60;;;;;;4992649;28;43491;-74
2022/09/10 06:24:31;;;;;;;0.97;0.97;;;23.70;61.40;;;;;;4976425;28;44041;-76
2022/09/10 06:27:00;;;;;;;0.67;0.67;;;23.70;61.70;;;;;;4972625;28;44698;-74
2022/09/10 06:29:32;;;;;;;0.70;0.70;;;23.60;61.80;;;;;;4980517;28;44840;-74
2022/09/10 06:32:00;;;;;;;0.90;0.90;;;23.50;62.10;;;;;;4990179;28;43868;-75
2022/09/10 06:34:28;;;;;;;0.90;0.90;;;23.50;62.10;;;;;;4988995;28;43705;-76
2022/09/10 06:36:56;;;;;;;0.60;0.60;;;23.50;62.20;;;;;;4975896;28;43554;-75
2022/09/10 06:39:27;;;;;;;0.70;0.70;;;23.40;62.30;;;;;;4981158;28;43472;-75
2022/09/10 06:41:58;;;;;;;0.73;0.73;;;23.40;62.40;;;;;;4980652;28;43450;-74
2022/09/10 06:44:44;;;;;;;0.80;0.80;;;23.40;62.50;;;;;;4985994;28;44093;-76
2022/09/10 06:47:36;;;;;;;0.70;0.70;;;23.40;62.50;;;;;;4997229;28;43444;-75
2022/09/10 06:50:25;;;;;;;0.90;0.90;;;23.40;62.50;;;;;;4978123;28;44160;-73
2022/09/10 06:52:56;;;;;;;0.90;0.90;;;23.30;62.50;;;;;;4983230;28;43550;-74
2022/09/10 06:55:25;;;;;;;0.90;0.90;;;23.30;62.70;;;;;;4974076;28;44072;-75
2022/09/10 06:57:53;;;;;;;0.70;0.70;;;23.30;62.60;;;;;;4991768;28;43481;-73
2022/09/10 07:00:23;;;;;;;0.90;0.90;;;23.40;62.30;;;;;;4971270;28;43864;-73
2022/09/10 07:02:53;;;;;;;1.50;0.80;;;23.60;62.00;;;;;;4971591;28;44094;-76
2022/09/10 07:05:23;;;;;;;1.00;1.00;;;23.70;61.70;;;;;;4978121;28;43827;-73
2022/09/10 07:07:51;;;;;;;0.70;0.70;;;23.70;61.50;;;;;;4978717;28;43491;-74
2022/09/10 07:10:20;;;;;;;0.80;0.80;;;23.60;61.50;;;;;;4979941;28;43501;-74
2022/09/10 07:12:49;;;;;;;0.80;0.80;;;23.60;61.80;;;;;;4984235;28;43510;-73
2022/09/10 07:15:17;;;;;;;0.90;0.90;;;23.50;62.00;;;;;;4977386;28;43835;-74
2022/09/10 07:17:47;;;;;;;0.83;0.83;;;23.50;62.10;;;;;;4970371;28;45095;-74
2022/09/10 07:20:16;;;;;;;1.00;0.90;;;23.40;62.10;;;;;;4973737;28;43453;-75
2022/09/10 07:22:46;;;;;;;0.80;0.80;;;23.40;62.30;;;;;;4976632;28;44226;-75
2022/09/10 07:25:15;;;;;;;2.00;1.00;;;23.40;62.40;;;;;;4980197;28;44964;-74
2022/09/10 07:27:58;;;;;;;0.80;0.80;;;23.30;62.50;;;;;;4976093;28;43578;-74
2022/09/10 07:30:27;;;;;;;0.60;0.60;;;23.30;62.40;;;;;;4984156;28;43346;-76
2022/09/10 07:32:57;;;;;;;0.80;0.80;;;23.30;62.50;;;;;;4997855;28;43403;-74
2022/09/10 07:35:28;;;;;;;1.00;1.00;;;23.30;62.50;;;;;;4978948;28;44052;-75
2022/09/10 07:37:55;;;;;;;1.17;1.10;;;23.30;62.80;;;;;;4970445;28;44913;-74
2022/09/10 07:40:26;;;;;;;0.73;0.73;;;23.30;62.70;;;;;;4980965;28;43489;-75
2022/09/10 07:42:54;;;;;;;0.87;0.87;;;23.40;62.50;;;;;;4976808;28;43482;-73
2022/09/10 07:45:24;;;;;;;0.80;0.80;;;23.50;62.10;;;;;;4978588;28;45545;-73
2022/09/10 07:47:52;;;;;;;0.80;0.80;;;23.60;61.70;;;;;;5001715;28;43413;-74
2022/09/10 07:50:22;;;;;;;0.90;0.90;;;23.70;61.60;;;;;;4971445;28;43816;-74
2022/09/10 07:52:53;;;;;;;1.10;1.10;;;23.60;61.60;;;;;;4973679;28;43447;-76
2022/09/10 07:55:23;;;;;;;3.30;1.60;;;23.50;61.80;;;;;;4975400;28;44053;-74
2022/09/10 07:57:51;;;;;;;3.27;1.80;;;23.50;62.10;;;;;;4991400;28;43470;-74
2022/09/10 08:00:20;;;;;;;2.00;1.90;;;23.50;62.30;;;;;;4970185;28;43789;-76
2022/09/10 08:02:52;;;;;;;2.43;1.60;;;23.40;62.20;;;;;;4981714;28;43402;-74
2022/09/10 08:05:23;;;;;;;1.80;1.70;;;23.40;62.40;;;;;;4977564;28;45568;-76
2022/09/10 08:07:52;;;;;;;2.80;2.30;;;23.40;62.50;;;;;;4969948;28;44466;-75
2022/09/10 08:10:21;;;;;;;3.60;2.07;;;23.30;62.70;;;;;;4982821;28;43792;-74
2022/09/10 08:12:52;;;;;;;4.83;2.27;;;23.30;62.60;;;;;;4977662;28;43549;-75
2022/09/10 08:15:22;;;;;;;2.67;1.90;;;23.30;62.60;;;;;;4996160;28;45843;-75
2022/09/10 08:17:50;;;;;;;2.67;1.90;;;23.30;62.60;;;;;;4975305;28;44781;-74
2022/09/10 08:20:19;;;;;;;5.17;2.70;;;23.30;62.70;;;;;;4971634;28;44057;-75
2022/09/10 08:22:50;;;;;;;4.57;2.70;;;23.30;62.90;;;;;;4975495;28;44090;-75
2022/09/10 08:25:19;;;;;;;3.43;2.40;;;23.30;62.70;;;;;;4977874;28;45229;-76
2022/09/10 08:27:47;;;;;;;3.30;2.50;;;23.40;62.50;;;;;;4975413;28;44306;-75
2022/09/10 08:30:16;;;;;;;3.63;2.33;;;23.50;62.10;;;;;;4982781;28;43486;-74
2022/09/10 08:32:45;;;;;;;4.10;2.07;;;23.60;61.80;;;;;;4972291;28;43916;-74
2022/09/10 08:35:13;;;;;;;3.13;2.27;;;23.60;61.70;;;;;;4978068;28;45334;-75
2022/09/10 08:37:42;;;;;;;8.60;2.83;;;23.60;62.00;;;;;;4980502;28;44998;-74
2022/09/10 08:40:13;;;;;;;5.13;2.40;;;23.50;62.10;;;;;;4988149;28;43408;-76
2022/09/10 08:42:42;;;;;;;5.00;2.50;;;23.40;62.40;;;;;;4970544;28;43545;-74
2022/09/10 08:45:12;;;;;;;5.20;2.60;;;23.40;62.60;;;;;;4973391;28;45778;-75
2022/09/10 08:47:46;;;;;;;3.80;2.53;;;23.40;62.60;;;;;;4980043;28;44460;-74
2022/09/10 08:50:19;;;;;;;4.83;2.40;;;23.40;62.70;;;;;;4981648;28;43407;-76
2022/09/10 08:52:48;;;;;;;4.20;2.20;;;23.30;62.80;;;;;;4972092;28;43624;-75
2022/09/10 08:55:27;;;;;;;4.43;2.33;;;23.30;63.20;;;;;;4978485;28;45803;-76
2022/09/10 08:57:56;;;;;;;4.60;2.27;;;23.30;63.00;;;;;;4969051;28;43817;-74
2022/09/10 09:00:25;;;;;;;3.20;2.27;;;23.30;63.00;;;;;;4986811;28;43444;-74
2022/09/10 09:02:56;;;;;;;6.90;2.53;;;23.30;63.10;;;;;;4972041;28;43463;-75
2022/09/10 09:05:27;;;;;;;4.27;2.50;;;23.30;63.50;;;;;;4977483;28;44070;-73
2022/09/10 09:07:57;;;;;;;4.33;2.47;;;23.30;63.40;;;;;;4975141;28;43512;-75
2022/09/10 09:10:32;;;;;;;3.10;2.30;;;23.40;63.20;;;;;;4969167;28;43419;-74
2022/09/10 09:13:28;;;;;;;4.00;2.57;;;23.50;62.70;;;;;;4980975;28;43429;-75
2022/09/10 09:16:13;;;;;;;3.73;2.53;;;23.60;62.30;;;;;;4979323;28;44866;-75
2022/09/10 09:18:57;;;;;;;6.93;2.43;;;23.70;62.20;;;;;;4974333;28;43409;-75
2022/09/10 09:21:30;;;;;;;2.50;2.30;;;23.60;62.20;;;;;;4975303;28;43486;-74
2022/09/10 09:23:58;;;;;;;2.47;2.00;;;23.50;62.40;;;;;;4979409;28;43530;-77
2022/09/10 09:26:51;;;;;;;3.23;2.30;;;23.40;62.90;;;;;;4975944;28;44042;-75
2022/09/10 09:29:21;;;;;;;3.33;2.10;;;23.40;62.80;;;;;;4992555;28;43497;-75
2022/09/10 09:31:50;;;;;;;2.60;2.03;;;23.40;62.90;;;;;;4969215;28;43366;-75
2022/09/10 09:34:20;;;;;;;2.97;2.10;;;23.30;63.00;;;;;;4979789;28;43505;-75
2022/09/10 09:36:49;;;;;;;2.50;2.30;;;23.30;63.30;;;;;;4977961;28;45724;-75
2022/09/10 09:39:21;;;;;;;2.47;1.90;;;23.30;63.30;;;;;;4983508;28;43460;-74
2022/09/10 09:41:59;;;;;;;2.87;2.13;;;23.30;63.20;;;;;;4978239;28;43409;-75
2022/09/10 09:44:28;;;;;;;2.90;1.90;;;23.30;63.20;;;;;;4999180;28;43420;-75
2022/09/10 09:46:56;;;;;;;5.27;2.40;;;23.30;63.20;;;;;;4983422;28;45638;-75
2022/09/10 09:49:25;;;;;;;2.23;1.90;;;23.30;63.50;;;;;;4977704;28;43387;-73
2022/09/10 09:51:55;;;;;;;4.47;1.97;;;23.30;63.30;;;;;;4975039;28;43810;-76
2022/09/10 09:54:25;;;;;;;4.13;2.23;;;23.40;63.10;;;;;;4991569;28;43478;-75
2022/09/10 09:57:19;;;;;;;2.70;1.97;;;23.60;62.70;;;;;;5000527;28;45391;-75
2022/09/10 09:59:47;;;;;;;3.87;2.07;;;23.70;62.30;;;;;;4997488;28;43493;-74
2022/09/10 10:02:17;;;;;;;3.90;2.00;;;23.70;62.10;;;;;;4980291;28;43511;-75
2022/09/10 10:04:53;;;;;;;2.37;2.17;;;23.60;62.00;;;;;;4992128;28;43860;-75
2022/09/10 10:07:25;;;;;;;3.20;2.03;;;23.50;62.20;;;;;;4975234;28;45408;-74
2022/09/10 10:09:53;;;;;;;2.07;1.70;;;23.50;62.80;;;;;;4993344;28;44222;-76
2022/09/10 10:12:22;;;;;;;2.20;1.80;;;23.50;62.90;;;;;;4999312;28;43573;-74
2022/09/10 10:14:50;;;;;;;2.10;1.93;;;23.40;62.80;;;;;;5007014;28;43448;-73
2022/09/10 10:17:34;;;;;;;3.20;2.00;;;23.40;62.90;;;;;;5003273;28;43572;-73
2022/09/10 10:20:12;;;;;;;3.07;2.00;;;23.30;63.10;;;;;;4976117;28;44261;-74
2022/09/10 10:22:40;;;;;;;3.50;2.20;;;23.30;63.30;;;;;;4993047;28;43759;-74
2022/09/10 10:25:35;;;;;;;2.77;1.90;;;23.30;63.20;;;;;;4973726;28;43463;-75
2022/09/10 10:28:04;;;;;;;1.90;1.80;;;23.30;63.30;;;;;;4982454;28;43917;-74
2022/09/10 10:30:32;;;;;;;1.80;1.70;;;23.30;63.40;;;;;;4993334;28;43491;-73
2022/09/10 10:33:01;;;;;;;1.70;1.60;;;23.30;63.60;;;;;;4994196;28;43362;-74
2022/09/10 10:35:37;;;;;;;2.00;1.90;;;23.40;63.50;;;;;;4999728;28;43349;-73
2022/09/10 10:38:31;;;;;;;1.67;1.57;;;23.50;63.00;;;;;;4993711;28;43612;-76
2022/09/10 10:41:17;;;;;;;2.60;2.37;;;23.60;62.60;;;;;;4996805;28;43469;-75
2022/09/10 10:43:51;;;;;;;1.77;1.67;;;23.60;62.40;;;;;;4980033;28;43500;-74
2022/09/10 10:46:20;;;;;;;2.23;2.00;;;23.60;62.50;;;;;;4991953;28;43361;-75
2022/09/10 10:48:57;;;;;;;1.80;1.70;;;23.50;62.50;;;;;;4974666;28;45435;-77
2022/09/10 10:51:28;;;;;;;2.83;1.90;;;23.40;63.00;;;;;;4971495;28;43393;-74
2022/09/10 10:54:04;;;;;;;2.33;2.00;;;23.40;63.00;;;;;;4975981;28;43551;-77
2022/09/10 10:56:36;;;;;;;2.23;1.73;;;23.40;63.00;;;;;;4990722;28;43457;-75
2022/09/10 10:59:16;;;;;;;2.20;1.97;;;23.30;63.00;;;;;;4995655;28;43819;-77
2022/09/10 11:01:47;;;;;;;2.17;1.97;;;23.30;63.30;;;;;;4973078;28;44790;-75
2022/09/10 11:04:22;;;;;;;1.87;1.77;;;23.30;63.50;;;;;;5001851;28;43825;-76
2022/09/10 11:06:56;;;;;;;2.10;2.00;;;23.30;63.30;;;;;;4995220;28;43408;-76
2022/09/10 11:09:25;;;;;;;1.77;1.67;;;23.30;63.40;;;;;;4979719;28;45552;-75
2022/09/10 11:11:56;;;;;;;1.97;1.87;;;23.30;63.40;;;;;;4977115;28;44780;-75
2022/09/10 11:14:28;;;;;;;1.80;1.70;;;23.20;63.70;;;;;;4971240;28;43945;-74
2022/09/10 11:16:58;;;;;;;1.90;1.80;;;23.30;63.70;;;;;;4989334;28;43475;-75
2022/09/10 11:19:30;;;;;;;1.90;1.80;;;23.40;63.10;;;;;;4979004;28;45714;-76
2022/09/10 11:22:00;;;;;;;3.33;2.00;;;23.50;62.90;;;;;;4993935;28;43393;-74
2022/09/10 11:24:29;;;;;;;1.90;1.80;;;23.60;62.60;;;;;;4981833;28;43445;-74
2022/09/10 11:27:03;;;;;;;1.70;1.60;;;23.60;62.40;;;;;;4980856;28;43963;-74
2022/09/10 11:29:36;;;;;;;1.70;1.60;;;23.50;62.40;;;;;;4976659;28;45728;-76
2022/09/10 11:32:06;;;;;;;1.50;1.50;;;23.50;62.60;;;;;;4991626;28;44504;-75
2022/09/10 11:34:35;;;;;;;3.13;1.87;;;23.40;63.00;;;;;;4991232;28;43355;-75
2022/09/10 11:37:05;;;;;;;2.53;1.50;;;23.40;63.10;;;;;;4996147;28;43463;-74
2022/09/10 11:39:34;;;;;;;2.40;1.70;;;23.40;63.10;;;;;;4989624;28;43610;-73
2022/09/10 11:42:07;;;;;;;1.90;1.80;;;23.30;63.10;;;;;;4994493;28;43504;-73
2022/09/10 11:44:41;;;;;;;2.60;1.90;;;23.30;63.30;;;;;;5000246;28;43693;-76
2022/09/10 11:47:13;;;;;;;2.67;2.47;;;23.30;63.90;;;;;;4978360;28;43512;-74
2022/09/10 11:49:47;;;;;;;1.97;1.67;;;23.30;63.60;;;;;;4977861;28;45684;-75
2022/09/10 11:52:15;;;;;;;1.80;1.70;;;23.30;63.60;;;;;;4991838;28;43431;-76
2022/09/10 11:54:45;;;;;;;1.57;1.47;;;23.30;63.60;;;;;;4978983;28;43470;-76
2022/09/10 11:57:17;;;;;;;2.47;1.37;;;23.20;64.10;;;;;;4989709;28;43542;-73
2022/09/10 12:00:06;;;;;;;1.70;1.60;;;23.30;64.00;;;;;;4991354;28;44208;-75
2022/09/10 12:03:09;;;;;;;1.60;1.50;;;23.40;63.60;;;;;;4976120;28;44654;-76
2022/09/10 12:05:43;;;;;;;1.87;1.77;;;23.60;63.10;;;;;;4993700;28;43444;-76
2022/09/10 12:08:16;;;;;;;1.87;1.77;;;23.70;62.90;;;;;;4990844;28;43404;-75
2022/09/10 12:10:48;;;;;;;1.60;1.50;;;23.70;62.60;;;;;;4987533;28;45096;-76
2022/09/10 12:13:16;;;;;;;1.83;1.73;;;23.60;62.60;;;;;;4990591;28;43424;-74
2022/09/10 12:15:50;;;;;;;1.73;1.63;;;23.60;62.80;;;;;;4993486;28;43415;-76
2022/09/10 12:18:20;;;;;;;1.53;1.53;;;23.50;63.50;;;;;;4979899;28;43449;-75
2022/09/10 12:20:49;;;;;;;1.60;1.50;;;23.50;63.50;;;;;;4987769;28;43608;-76
2022/09/10 12:23:19;;;;;;;1.40;1.40;;;23.40;63.30;;;;;;4993432;28;43479;-74
2022/09/10 12:25:48;;;;;;;1.50;1.50;;;23.40;63.40;;;;;;4997152;28;43463;-75
2022/09/10 12:28:49;;;;;;;1.70;1.60;;;23.30;63.80;;;;;;4996987;28;43390;-77
2022/09/10 12:31:19;;;;;;;2.00;1.90;;;23.40;64.00;;;;;;4986113;28;43957;-76
2022/09/10 12:34:06;;;;;;;1.50;1.40;;;23.30;63.70;;;;;;4995987;28;43545;-75
2022/09/10 12:37:14;;;;;;;1.53;1.50;;;23.30;63.70;;;;;;4989251;28;43484;-74
2022/09/10 12:39:42;;;;;;;1.90;1.80;;;23.30;64.30;;;;;;4988507;28;43404;-75
2022/09/10 12:42:33;;;;;;;1.70;1.60;;;23.30;64.20;;;;;;4992414;28;43620;-74
2022/09/10 12:45:01;;;;;;;2.00;1.57;;;23.30;63.90;;;;;;4998095;28;43443;-77
2022/09/10 12:47:43;;;;;;;1.80;1.70;;;23.30;63.90;;;;;;4990432;28;43397;-76
2022/09/10 12:50:30;;;;;;;1.53;1.53;;;23.30;64.40;;;;;;4976330;28;43871;-75
2022/09/10 12:53:17;;;;;;;1.90;1.90;;;23.30;64.40;;;;;;4990607;28;43612;-74
2022/09/10 12:55:51;;;;;;;1.63;1.53;;;23.40;64.10;;;;;;4994719;28;43854;-75
2022/09/10 12:58:21;;;;;;;1.90;1.80;;;23.60;63.70;;;;;;4990315;28;43461;-76
2022/09/10 13:01:03;;;;;;;2.30;2.07;;;23.70;63.20;;;;;;4990603;28;43453;-75
2022/09/10 13:03:32;;;;;;;1.60;1.60;;;23.80;63.00;;;;;;4995405;28;43969;-75
2022/09/10 13:06:03;;;;;;;2.00;1.90;;;23.70;63.00;;;;;;4994658;28;43461;-74
2022/09/10 13:08:32;;;;;;;1.90;1.80;;;23.60;63.00;;;;;;4988754;28;43502;-75
2022/09/10 13:11:14;;;;;;;1.93;1.83;;;23.50;63.60;;;;;;4986863;28;43489;-75